Time;durP1;ratioP1;P1;durP2;ratioP2;P2;SDS_P1;SDS_P2;PMS_P1;PMS_P2;Temp;Humidity;BMP_temperature;BMP_pressure;BME280_temperature;BME280_humidity;BME280_pressure;Samples;Min_cycle;Max_cycle;Signal;HPM_P1;HPM_P2
2021/12/20 00:00:27;;;;;;;27.98;14.60;;;3.50;99.90;;;;;;5056096;28;20025;-67
2021/12/20 00:02:57;;;;;;;28.88;15.32;;;3.50;99.90;;;;;;5054339;28;20450;-67
2021/12/20 00:05:23;;;;;;;32.92;16.40;;;3.50;99.90;;;;;;5055868;28;20032;-67
2021/12/20 00:07:49;;;;;;;35.35;16.58;;;3.50;99.90;;;;;;5055230;28;20025;-67
2021/12/20 00:10:16;;;;;;;35.50;17.52;;;3.50;99.90;;;;;;5055734;28;20024;-70
2021/12/20 00:12:42;;;;;;;34.35;17.05;;;3.50;99.90;;;;;;5055672;28;20028;-67
2021/12/20 00:15:08;;;;;;;37.13;17.83;;;3.50;99.90;;;;;;5052361;28;20116;-69
2021/12/20 00:17:34;;;;;;;34.50;17.02;;;3.50;99.90;;;;;;5050433;28;20115;-69
2021/12/20 00:20:00;;;;;;;32.42;16.92;;;3.50;99.90;;;;;;5055830;28;20105;-67
2021/12/20 00:22:26;;;;;;;41.13;18.05;;;3.40;99.90;;;;;;5054747;28;20476;-68
2021/12/20 00:24:52;;;;;;;38.05;17.90;;;3.40;99.90;;;;;;5055093;28;20052;-69
2021/12/20 00:27:20;;;;;;;42.92;18.17;;;3.40;99.90;;;;;;5054905;28;20048;-70
2021/12/20 00:29:47;;;;;;;43.28;17.92;;;3.40;99.90;;;;;;5053716;28;20052;-68
2021/12/20 00:32:13;;;;;;;36.65;17.30;;;3.40;99.90;;;;;;5055445;28;20023;-68
2021/12/20 00:34:41;;;;;;;35.97;17.17;;;3.40;99.90;;;;;;5054942;28;20036;-67
2021/12/20 00:40:19;;;;;;;36.78;16.90;;;3.40;99.90;;;;;;5054680;28;20024;-68
2021/12/20 00:42:37;;;;;;;35.45;17.00;;;3.40;99.90;;;;;;5061187;28;20067;-68
2021/12/20 00:45:03;;;;;;;40.85;17.83;;;3.40;99.90;;;;;;5051168;28;20484;-68
2021/12/20 00:47:29;;;;;;;37.20;16.83;;;3.40;99.90;;;;;;5049753;28;20029;-68
2021/12/20 00:49:55;;;;;;;38.53;16.85;;;3.30;99.90;;;;;;5050122;28;20027;-69
2021/12/20 00:52:20;;;;;;;38.33;17.25;;;3.30;99.90;;;;;;5052394;28;20625;-69
2021/12/20 00:54:46;;;;;;;39.00;17.25;;;3.30;99.90;;;;;;5053426;28;20111;-69
2021/12/20 00:57:12;;;;;;;37.35;16.13;;;3.30;99.90;;;;;;5053912;28;20502;-68
2021/12/20 00:59:37;;;;;;;37.15;15.48;;;3.30;99.90;;;;;;5050847;28;20024;-69
2021/12/20 01:02:03;;;;;;;35.03;16.58;;;3.30;99.90;;;;;;5053499;28;20025;-68
2021/12/20 01:04:29;;;;;;;35.92;16.42;;;3.30;99.90;;;;;;5051605;28;20147;-71
2021/12/20 01:06:54;;;;;;;34.75;14.98;;;3.30;99.90;;;;;;5047477;28;20531;-69
2021/12/20 01:09:20;;;;;;;36.95;15.68;;;3.30;99.90;;;;;;5053114;28;20025;-68
2021/12/20 01:11:51;;;;;;;36.67;15.05;;;3.30;99.90;;;;;;5054004;28;20055;-68
2021/12/20 01:14:22;;;;;;;31.30;14.13;;;3.30;99.90;;;;;;5050791;28;20039;-69
2021/12/20 01:16:48;;;;;;;32.92;15.90;;;3.30;99.90;;;;;;5049294;28;20036;-69
2021/12/20 01:19:14;;;;;;;33.85;14.35;;;3.20;99.90;;;;;;5053139;28;20040;-68
2021/12/20 01:21:40;;;;;;;35.13;15.23;;;3.20;99.90;;;;;;5053208;28;20028;-69
2021/12/20 01:24:06;;;;;;;30.70;14.45;;;3.20;99.90;;;;;;5053948;28;20501;-69
2021/12/20 01:26:31;;;;;;;35.45;14.63;;;3.20;99.90;;;;;;5052276;28;20354;-69
2021/12/20 01:28:57;;;;;;;31.38;14.43;;;3.20;99.90;;;;;;5053178;28;20492;-69
2021/12/20 01:31:23;;;;;;;33.05;13.98;;;3.20;99.90;;;;;;5048991;28;20385;-69
2021/12/20 01:33:49;;;;;;;34.97;14.13;;;3.20;99.90;;;;;;5049061;28;20416;-69
2021/12/20 01:36:14;;;;;;;36.80;14.23;;;3.20;99.90;;;;;;5053503;28;20039;-69
2021/12/20 01:38:41;;;;;;;29.95;13.40;;;3.20;99.90;;;;;;5053036;28;20032;-69
2021/12/20 01:41:08;;;;;;;31.85;14.07;;;3.20;99.90;;;;;;5053479;28;20035;-69
2021/12/20 01:43:34;;;;;;;36.90;15.32;;;3.20;99.90;;;;;;5052961;28;20049;-69
2021/12/20 01:46:00;;;;;;;33.70;14.10;;;3.20;99.90;;;;;;5049220;28;20025;-69
2021/12/20 01:48:26;;;;;;;34.47;14.00;;;3.20;99.90;;;;;;5037996;28;20082;-69
2021/12/20 01:51:18;;;;;;;32.83;14.02;;;3.20;99.90;;;;;;5052462;28;20028;-69
2021/12/20 01:53:44;;;;;;;30.85;13.20;;;3.10;99.90;;;;;;5051128;28;20462;-69
2021/12/20 01:56:10;;;;;;;31.75;13.80;;;3.20;99.90;;;;;;5049957;28;20028;-69
2021/12/20 01:58:37;;;;;;;28.35;13.55;;;3.20;99.90;;;;;;5052821;28;20094;-68
2021/12/20 02:03:42;;;;;;;32.67;13.60;;;3.20;99.90;;;;;;5070256;28;20411;-68
2021/12/20 02:06:17;;;;;;;34.67;13.52;;;3.20;99.90;;;;;;5052245;28;20031;-68
2021/12/20 02:08:43;;;;;;;28.45;12.43;;;3.20;99.90;;;;;;5051486;28;20025;-68
2021/12/20 02:11:10;;;;;;;28.92;13.73;;;3.30;99.90;;;;;;5050378;28;20099;-69
2021/12/20 02:13:39;;;;;;;30.50;13.48;;;3.20;99.90;;;;;;5052715;28;20126;-68
2021/12/20 02:16:05;;;;;;;31.48;14.55;;;3.30;99.90;;;;;;5044545;28;20029;-69
2021/12/20 02:18:32;;;;;;;30.92;14.30;;;3.30;99.90;;;;;;5039278;28;20027;-69
2021/12/20 02:20:59;;;;;;;33.30;14.20;;;3.30;99.90;;;;;;5050668;28;20020;-69
2021/12/20 02:23:25;;;;;;;28.13;13.75;;;3.30;99.90;;;;;;5052732;28;20032;-69
2021/12/20 02:25:51;;;;;;;28.27;13.40;;;3.40;99.90;;;;;;5044455;28;20671;-69
2021/12/20 02:28:19;;;;;;;31.95;14.05;;;3.30;99.90;;;;;;5052986;28;20051;-69
2021/12/20 02:38:52;;;;;;;34.35;14.23;;;3.50;99.90;;;;;;5069012;28;20044;-69
2021/12/20 02:41:25;;;;;;;33.78;15.70;;;3.50;99.90;;;;;;5052166;28;20094;-69
2021/12/20 02:43:55;;;;;;;32.60;14.95;;;3.40;99.90;;;;;;5051668;28;20488;-68
2021/12/20 02:49:00;;;;;;;29.23;13.65;;;3.40;99.90;;;;;;5067664;28;20028;-68
2021/12/20 02:51:28;;;;;;;28.67;13.23;;;3.40;99.90;;;;;;5052299;28;20108;-69
2021/12/20 02:53:57;;;;;;;31.50;12.98;;;3.40;99.90;;;;;;5047166;28;20116;-68
2021/12/20 02:56:23;;;;;;;29.02;12.70;;;3.40;99.90;;;;;;5049756;28;20048;-69
2021/12/20 02:58:49;;;;;;;28.40;13.23;;;3.40;99.90;;;;;;5051999;28;20028;-69
2021/12/20 03:01:15;;;;;;;27.42;12.55;;;3.30;99.90;;;;;;5052254;28;20051;-68
2021/12/20 03:03:41;;;;;;;26.38;13.35;;;3.40;99.90;;;;;;5052599;28;20503;-68
2021/12/20 03:06:10;;;;;;;31.90;13.95;;;3.30;99.90;;;;;;5069442;28;20153;-69
2021/12/20 03:08:37;;;;;;;26.42;13.05;;;3.30;99.90;;;;;;5051984;28;20082;-68
2021/12/20 03:11:03;;;;;;;30.70;13.40;;;3.30;99.90;;;;;;5050698;28;20476;-68
2021/12/20 03:13:29;;;;;;;32.22;14.95;;;3.40;99.90;;;;;;5056012;28;20050;-68
2021/12/20 03:15:54;;;;;;;32.53;13.95;;;3.30;99.90;;;;;;5052056;28;20404;-69
2021/12/20 03:18:20;;;;;;;28.45;12.88;;;3.40;99.90;;;;;;5053428;28;20119;-68
2021/12/20 03:20:45;;;;;;;29.25;12.82;;;3.40;99.90;;;;;;5056031;28;20024;-69
2021/12/20 03:23:11;;;;;;;31.70;14.02;;;3.40;99.90;;;;;;5055615;28;20038;-69
2021/12/20 03:25:37;;;;;;;30.85;13.60;;;3.40;99.90;;;;;;5055804;28;20550;-68
2021/12/20 03:28:03;;;;;;;26.33;12.45;;;3.40;99.90;;;;;;5056116;28;20029;-69
2021/12/20 03:30:28;;;;;;;30.90;12.90;;;3.40;99.90;;;;;;5055633;28;20012;-69
2021/12/20 03:32:54;;;;;;;31.77;14.55;;;3.40;99.90;;;;;;5055708;28;20078;-69
2021/12/20 03:35:20;;;;;;;30.67;14.43;;;3.40;99.90;;;;;;5055972;28;20396;-69
2021/12/20 03:37:45;;;;;;;29.38;12.85;;;3.30;99.90;;;;;;5055198;28;20029;-69
2021/12/20 03:40:12;;;;;;;32.13;13.60;;;3.30;99.90;;;;;;5053171;28;20048;-69
2021/12/20 03:42:41;;;;;;;34.25;14.25;;;3.30;99.90;;;;;;5055871;28;20089;-68
2021/12/20 03:45:08;;;;;;;32.92;14.63;;;3.30;99.90;;;;;;5050477;28;20025;-69
2021/12/20 03:47:34;;;;;;;32.00;14.88;;;3.30;99.90;;;;;;5061755;28;20032;-69
2021/12/20 03:50:00;;;;;;;28.65;12.98;;;3.30;99.90;;;;;;5051499;28;20040;-69
2021/12/20 03:52:25;;;;;;;35.25;15.30;;;3.40;99.90;;;;;;5055152;28;20734;-69
2021/12/20 03:54:51;;;;;;;32.63;14.93;;;3.40;99.90;;;;;;5064420;28;20492;-69
2021/12/20 03:57:17;;;;;;;31.67;14.30;;;3.40;99.90;;;;;;5055150;28;20071;-69
2021/12/20 03:59:47;;;;;;;31.95;13.77;;;3.40;99.90;;;;;;5053864;28;20048;-69
2021/12/20 04:02:16;;;;;;;32.38;14.48;;;3.40;99.90;;;;;;5054986;28;20024;-69
2021/12/20 04:04:42;;;;;;;30.70;14.68;;;3.40;99.90;;;;;;5055214;28;20063;-68
2021/12/20 04:07:07;;;;;;;31.98;14.38;;;3.40;99.90;;;;;;5054883;28;20488;-68
2021/12/20 04:09:33;;;;;;;34.35;15.52;;;3.40;99.90;;;;;;5054437;28;20028;-69
2021/12/20 04:11:59;;;;;;;31.75;15.13;;;3.40;99.90;;;;;;5053421;28;20108;-69
2021/12/20 04:14:24;;;;;;;33.28;14.50;;;3.50;99.90;;;;;;5049255;28;20508;-69
2021/12/20 04:16:50;;;;;;;33.53;15.23;;;3.50;99.90;;;;;;5054828;28;20107;-69
2021/12/20 04:19:15;;;;;;;28.85;13.45;;;3.50;99.90;;;;;;5055000;28;20501;-69
2021/12/20 04:21:41;;;;;;;36.60;15.10;;;3.50;99.90;;;;;;5054966;28;20032;-69
2021/12/20 04:24:07;;;;;;;32.75;14.57;;;3.50;99.90;;;;;;5052230;28;20040;-68
2021/12/20 04:26:32;;;;;;;30.10;13.73;;;3.50;99.90;;;;;;5053306;28;20070;-69
2021/12/20 04:28:58;;;;;;;31.10;14.45;;;3.50;99.90;;;;;;5054527;28;20021;-68
2021/12/20 04:31:24;;;;;;;34.85;13.98;;;3.50;99.90;;;;;;5054836;28;20028;-68
2021/12/20 04:33:50;;;;;;;33.50;13.90;;;3.50;99.90;;;;;;5051657;28;20036;-69
2021/12/20 04:36:16;;;;;;;32.22;13.15;;;3.50;99.90;;;;;;5054668;28;20473;-68
2021/12/20 04:38:43;;;;;;;31.02;14.32;;;3.50;99.90;;;;;;5053884;28;20399;-69
2021/12/20 04:41:12;;;;;;;29.02;13.80;;;3.50;99.90;;;;;;5053819;28;20720;-69
2021/12/20 04:43:38;;;;;;;31.40;14.10;;;3.50;99.90;;;;;;5100926;22;20068;-67
2021/12/20 04:46:03;;;;;;;31.25;14.20;;;3.50;99.90;;;;;;5029911;28;20161;-66
2021/12/20 04:48:29;;;;;;;28.85;14.13;;;3.50;99.90;;;;;;5028816;28;20025;-67
2021/12/20 04:50:55;;;;;;;32.95;13.98;;;3.50;99.90;;;;;;5024256;28;20048;-67
2021/12/20 04:53:21;;;;;;;32.85;14.15;;;3.60;99.90;;;;;;5042918;28;20032;-65
2021/12/20 04:55:46;;;;;;;27.10;12.75;;;3.60;99.90;;;;;;5038083;28;20445;-66
2021/12/20 04:58:12;;;;;;;36.33;14.73;;;3.60;99.90;;;;;;5040875;28;20041;-65
2021/12/20 05:00:40;;;;;;;36.53;14.25;;;3.60;99.90;;;;;;5038070;28;20029;-67
2021/12/20 05:03:07;;;;;;;35.83;14.85;;;3.60;99.90;;;;;;5037538;28;20029;-66
2021/12/20 05:05:33;;;;;;;34.97;14.70;;;3.60;99.90;;;;;;5038545;28;20048;-66
2021/12/20 05:08:03;;;;;;;36.33;14.77;;;3.60;99.90;;;;;;5038453;28;20032;-65
2021/12/20 05:10:33;;;;;;;35.70;14.18;;;3.60;99.90;;;;;;5038595;28;20025;-67
2021/12/20 05:13:01;;;;;;;34.95;14.60;;;3.70;99.90;;;;;;5043704;28;20040;-67
2021/12/20 05:15:27;;;;;;;37.53;13.60;;;3.70;99.90;;;;;;5044254;28;20037;-67
2021/12/20 05:17:53;;;;;;;36.42;15.20;;;3.70;99.90;;;;;;5042673;28;20111;-67
2021/12/20 05:20:19;;;;;;;34.17;14.48;;;3.70;99.90;;;;;;5035692;28;20162;-67
2021/12/20 05:22:45;;;;;;;36.20;15.30;;;3.70;99.90;;;;;;5038906;28;20040;-68
2021/12/20 05:25:11;;;;;;;33.08;14.65;;;3.60;99.90;;;;;;5054410;28;20111;-68
2021/12/20 05:27:37;;;;;;;34.78;13.90;;;3.60;99.90;;;;;;5031044;28;20039;-67
2021/12/20 05:30:05;;;;;;;33.28;15.10;;;3.60;99.90;;;;;;5047054;28;20029;-67
2021/12/20 05:32:31;;;;;;;33.28;13.75;;;3.60;99.90;;;;;;5033496;28;20025;-67
2021/12/20 05:34:56;;;;;;;33.33;14.50;;;3.60;99.90;;;;;;5032415;28;20036;-68
2021/12/20 05:37:22;;;;;;;30.13;14.10;;;3.60;99.90;;;;;;5032438;28;20285;-69
2021/12/20 05:39:48;;;;;;;34.83;15.07;;;3.50;99.90;;;;;;5030797;28;20129;-69
2021/12/20 05:42:13;;;;;;;34.45;15.00;;;3.50;99.90;;;;;;5019176;28;20068;-68
2021/12/20 05:44:39;;;;;;;35.13;14.82;;;3.50;99.90;;;;;;5021407;28;20079;-69
2021/12/20 05:47:05;;;;;;;33.70;15.02;;;3.50;99.90;;;;;;5026842;28;20017;-68
2021/12/20 05:49:31;;;;;;;30.30;15.02;;;3.50;99.90;;;;;;5049909;28;20136;-70
2021/12/20 05:51:59;;;;;;;30.58;13.80;;;3.50;99.90;;;;;;5039198;28;20028;-68
2021/12/20 05:54:24;;;;;;;30.42;14.25;;;3.50;99.90;;;;;;5028514;28;20130;-69
2021/12/20 05:56:50;;;;;;;34.78;15.05;;;3.50;99.90;;;;;;5033659;28;20554;-69
2021/12/20 05:59:16;;;;;;;34.85;14.73;;;3.40;99.90;;;;;;5033883;28;20132;-68
2021/12/20 06:01:41;;;;;;;31.67;14.52;;;3.50;99.90;;;;;;5030726;28;20056;-70
2021/12/20 06:04:07;;;;;;;32.83;14.00;;;3.40;99.90;;;;;;5048454;28;20048;-68
2021/12/20 06:06:33;;;;;;;32.85;14.90;;;3.40;99.90;;;;;;5032482;28;20095;-68
2021/12/20 06:08:59;;;;;;;32.25;14.05;;;3.40;99.90;;;;;;5035891;28;20641;-69
2021/12/20 06:11:24;;;;;;;30.65;13.98;;;3.40;99.90;;;;;;5033452;28;20412;-69
2021/12/20 06:13:51;;;;;;;33.70;14.00;;;3.40;99.90;;;;;;5026657;28;20040;-69
2021/12/20 06:16:17;;;;;;;34.70;15.15;;;3.40;99.90;;;;;;5027222;28;20028;-68
2021/12/20 06:18:43;;;;;;;35.90;15.30;;;3.50;99.90;;;;;;5031254;28;20033;-69
2021/12/20 06:21:10;;;;;;;33.20;15.38;;;3.40;99.90;;;;;;5030747;28;20032;-69
2021/12/20 06:23:35;;;;;;;32.50;13.82;;;3.50;99.90;;;;;;5032560;28;20028;-69
2021/12/20 06:26:02;;;;;;;37.75;15.50;;;3.50;99.90;;;;;;5029844;28;20029;-68
2021/12/20 06:28:28;;;;;;;35.70;15.32;;;3.50;99.90;;;;;;5029774;28;20121;-68
2021/12/20 06:30:54;;;;;;;35.92;15.50;;;3.50;99.90;;;;;;5057672;28;20016;-68
2021/12/20 06:33:20;;;;;;;34.90;15.73;;;3.50;99.90;;;;;;5034721;28;20560;-68
2021/12/20 06:35:46;;;;;;;33.83;15.65;;;3.50;99.90;;;;;;5036813;28;20111;-68
2021/12/20 06:38:18;;;;;;;34.85;15.02;;;3.50;99.90;;;;;;5039432;28;20025;-67
2021/12/20 06:40:44;;;;;;;;;;;3.50;99.90;;;;;;5026398;28;20559;-68
2021/12/20 06:43:10;;;;;;;32.53;13.35;;;3.50;99.90;;;;;;5041451;28;19912;-67
2021/12/20 06:45:35;;;;;;;38.03;15.88;;;3.50;99.90;;;;;;5033458;28;20040;-67
2021/12/20 06:48:01;;;;;;;32.80;14.93;;;3.50;99.90;;;;;;5030666;28;20028;-67
2021/12/20 06:50:27;;;;;;;38.38;15.80;;;3.50;99.90;;;;;;5049856;28;20049;-67
2021/12/20 06:52:53;;;;;;;41.67;16.40;;;3.50;99.90;;;;;;5034270;28;20048;-67
2021/12/20 06:55:18;;;;;;;48.50;16.95;;;3.50;99.90;;;;;;5033224;28;20033;-67
2021/12/20 06:57:44;;;;;;;45.72;17.10;;;3.50;99.90;;;;;;5046818;28;20674;-67
2021/12/20 07:00:10;;;;;;;52.65;19.48;;;3.60;99.90;;;;;;5033523;28;20457;-67
2021/12/20 07:02:36;;;;;;;56.08;18.73;;;3.60;99.90;;;;;;5030793;28;20500;-67
2021/12/20 07:05:02;;;;;;;47.42;18.52;;;3.60;99.90;;;;;;5043357;28;20041;-68
2021/12/20 07:07:29;;;;;;;51.25;17.52;;;3.60;99.90;;;;;;5037963;28;20032;-68
2021/12/20 07:09:54;;;;;;;54.85;18.67;;;3.60;99.90;;;;;;5044301;28;20029;-68
2021/12/20 07:12:20;;;;;;;60.05;19.95;;;3.60;99.90;;;;;;5051642;28;20024;-68
2021/12/20 07:14:49;;;;;;;55.00;18.85;;;3.60;99.90;;;;;;5029577;28;20024;-68
2021/12/20 07:17:15;;;;;;;58.42;17.30;;;3.60;99.90;;;;;;5049159;28;20031;-68
2021/12/20 07:19:41;;;;;;;55.60;18.48;;;3.70;99.90;;;;;;5040666;28;20029;-68
2021/12/20 07:22:07;;;;;;;59.45;19.05;;;3.70;99.90;;;;;;5050784;28;20739;-68
2021/12/20 07:24:32;;;;;;;60.75;19.25;;;3.70;99.90;;;;;;5037587;28;20024;-68
2021/12/20 07:26:58;;;;;;;60.33;19.52;;;3.70;99.90;;;;;;5037159;28;20108;-64
2021/12/20 07:29:24;;;;;;;60.58;19.63;;;3.70;99.90;;;;;;5036615;28;20604;-66
2021/12/20 07:31:50;;;;;;;51.22;17.15;;;3.70;99.90;;;;;;5036398;28;20087;-68
2021/12/20 07:34:15;;;;;;;52.60;18.20;;;3.70;99.90;;;;;;5044614;28;20094;-68
2021/12/20 07:36:41;;;;;;;59.20;19.58;;;3.70;99.90;;;;;;5030810;28;20021;-68
2021/12/20 07:39:07;;;;;;;55.38;18.52;;;3.70;99.90;;;;;;5037090;28;20093;-68
2021/12/20 07:41:33;;;;;;;55.65;18.23;;;3.70;99.90;;;;;;5036704;28;20366;-67
2021/12/20 07:43:58;;;;;;;68.35;19.80;;;3.70;99.90;;;;;;5040560;28;20029;-69
2021/12/20 07:46:24;;;;;;;66.63;20.08;;;3.70;99.90;;;;;;5034931;28;20032;-69
2021/12/20 07:48:50;;;;;;;62.75;19.08;;;3.80;99.90;;;;;;5036020;28;20017;-69
2021/12/20 07:51:17;;;;;;;66.60;21.10;;;3.80;99.90;;;;;;5028483;28;20112;-69
2021/12/20 07:53:42;;;;;;;62.05;20.00;;;3.80;99.90;;;;;;5034894;28;20025;-69
2021/12/20 07:56:08;;;;;;;66.30;19.00;;;3.80;99.90;;;;;;5049381;28;20087;-69
2021/12/20 07:58:34;;;;;;;60.05;19.73;;;3.80;99.90;;;;;;5034219;28;20037;-69
2021/12/20 08:01:01;;;;;;;55.22;19.33;;;3.80;99.90;;;;;;5036262;28;20534;-69
2021/12/20 08:03:28;;;;;;;55.13;17.92;;;3.80;99.90;;;;;;5036068;28;20024;-69
2021/12/20 08:05:54;;;;;;;60.10;20.05;;;3.80;99.90;;;;;;5033450;28;20025;-69
2021/12/20 08:08:19;;;;;;;59.60;18.95;;;3.80;99.90;;;;;;5034815;28;20025;-69
2021/12/20 08:10:46;;;;;;;52.42;17.33;;;3.80;99.90;;;;;;5041263;28;20036;-69
2021/12/20 08:13:12;;;;;;;54.95;17.77;;;3.80;99.90;;;;;;5049763;28;20134;-69
2021/12/20 08:15:39;;;;;;;46.13;17.30;;;3.90;99.90;;;;;;5045295;28;20063;-69
2021/12/20 08:18:06;;;;;;;48.63;16.48;;;3.90;99.90;;;;;;5054784;28;20047;-69
2021/12/20 08:20:32;;;;;;;46.58;15.75;;;3.90;99.90;;;;;;5049800;28;20098;-69
2021/12/20 08:23:01;;;;;;;43.13;16.77;;;3.90;99.90;;;;;;5037885;28;20025;-69
2021/12/20 08:25:27;;;;;;;48.95;14.93;;;3.90;99.90;;;;;;5038452;28;20429;-69
2021/12/20 08:27:53;;;;;;;44.40;14.65;;;3.90;99.90;;;;;;5035484;28;20131;-69
2021/12/20 08:30:21;;;;;;;45.58;15.18;;;3.90;99.90;;;;;;5038094;28;20021;-69
2021/12/20 08:32:46;;;;;;;44.25;15.15;;;3.90;99.90;;;;;;5056575;28;20499;-69
2021/12/20 08:35:13;;;;;;;45.45;15.13;;;3.90;99.90;;;;;;5039164;28;20064;-69
2021/12/20 08:37:40;;;;;;;43.92;15.18;;;3.90;99.90;;;;;;5044828;28;20527;-69
2021/12/20 08:40:07;;;;;;;41.30;14.15;;;3.90;99.90;;;;;;5055458;28;20519;-69
2021/12/20 08:42:33;;;;;;;42.92;14.65;;;4.00;99.90;;;;;;5043430;28;20029;-70
2021/12/20 08:44:59;;;;;;;41.45;14.30;;;3.90;99.90;;;;;;5036608;28;20036;-69
2021/12/20 08:47:24;;;;;;;33.10;11.25;;;4.00;99.90;;;;;;5033308;28;20018;-67
2021/12/20 08:49:50;;;;;;;35.97;12.88;;;4.00;99.90;;;;;;5063441;28;20017;-69
2021/12/20 08:55:19;;;;;;;34.17;12.98;;;4.00;99.90;;;;;;5050996;28;20041;-70
2021/12/20 08:57:44;;;;;;;37.00;13.20;;;3.90;99.90;;;;;;5039145;28;20083;-69
2021/12/20 09:00:39;;;;;;;32.03;11.07;;;3.90;99.90;;;;;;5055875;28;20742;-69
2021/12/20 09:03:11;;;;;;;25.38;10.68;;;3.90;99.90;;;;;;5035718;28;20060;-69
2021/12/20 09:06:08;;;;;;;26.70;10.60;;;3.90;99.90;;;;;;5037566;28;20032;-69
2021/12/20 09:08:34;;;;;;;26.08;9.85;;;3.90;99.90;;;;;;5026556;28;20044;-67
2021/12/20 09:11:01;;;;;;;25.42;10.10;;;3.90;99.90;;;;;;5040175;28;20083;-69
2021/12/20 09:13:45;;;;;;;25.60;10.77;;;4.00;99.90;;;;;;5050233;28;20017;-69
2021/12/20 09:16:25;;;;;;;26.90;10.93;;;3.90;99.90;;;;;;5035566;28;20514;-69
2021/12/20 09:18:56;;;;;;;27.58;10.25;;;4.00;99.90;;;;;;5054932;28;20033;-69
2021/12/20 09:21:27;;;;;;;25.83;10.05;;;4.00;99.90;;;;;;5038919;28;20036;-69
2021/12/20 09:24:11;;;;;;;27.25;8.88;;;4.00;99.90;;;;;;5049242;28;20033;-69
2021/12/20 09:26:48;;;;;;;21.75;8.63;;;4.00;99.90;;;;;;5030513;28;20032;-69
2021/12/20 09:29:19;;;;;;;22.73;8.18;;;4.00;99.90;;;;;;5037364;28;20028;-69
2021/12/20 09:31:47;;;;;;;23.30;8.03;;;4.00;99.90;;;;;;5033089;28;20021;-69
2021/12/20 09:34:13;;;;;;;23.95;8.60;;;3.90;99.90;;;;;;5035023;28;20276;-67
2021/12/20 09:36:42;;;;;;;25.63;10.00;;;3.90;99.90;;;;;;5038145;28;20063;-69
2021/12/20 09:39:17;;;;;;;24.95;8.15;;;4.00;99.90;;;;;;5033206;28;20485;-67
2021/12/20 09:44:12;;;;;;;20.50;7.95;;;4.20;99.90;;;;;;5048038;28;20532;-67
2021/12/20 09:46:44;;;;;;;19.90;8.60;;;4.20;99.90;;;;;;5031324;28;20071;-67
2021/12/20 09:49:21;;;;;;;25.33;8.57;;;4.30;99.90;;;;;;5041672;28;20021;-67
2021/12/20 09:51:52;;;;;;;21.85;8.02;;;4.30;99.90;;;;;;5031770;28;20556;-69
2021/12/20 09:54:28;;;;;;;18.25;7.63;;;4.30;99.90;;;;;;5045194;28;20033;-67
2021/12/20 09:57:02;;;;;;;21.35;8.00;;;4.20;99.90;;;;;;5025689;28;20497;-67
2021/12/20 09:59:40;;;;;;;19.63;8.05;;;4.20;99.90;;;;;;5037054;28;20063;-68
2021/12/20 10:02:13;;;;;;;18.40;8.25;;;4.30;99.90;;;;;;5031236;28;20163;-68
2021/12/20 10:05:34;;;;;;;16.25;7.13;;;4.30;99.90;;;;;;5052475;28;20540;-68
2021/12/20 10:08:40;;;;;;;17.45;7.53;;;4.30;99.90;;;;;;5038769;28;20025;-68
2021/12/20 10:11:21;;;;;;;17.42;7.45;;;4.40;99.90;;;;;;5041565;28;20103;-68
2021/12/20 10:14:08;;;;;;;15.90;7.20;;;4.40;99.90;;;;;;5035010;28;20021;-68
2021/12/20 10:16:41;;;;;;;18.23;7.75;;;4.40;99.90;;;;;;5031741;28;20125;-68
2021/12/20 10:19:32;;;;;;;21.17;7.60;;;4.40;99.90;;;;;;5031957;28;20045;-68
2021/12/20 10:22:29;;;;;;;15.20;7.03;;;4.40;99.90;;;;;;5034471;28;20021;-68
2021/12/20 10:25:23;;;;;;;17.00;7.00;;;4.40;99.90;;;;;;5033755;28;20029;-68
2021/12/20 10:28:04;;;;;;;20.90;7.40;;;4.50;99.90;;;;;;5031010;28;20382;-68
2021/12/20 10:30:38;;;;;;;16.17;7.10;;;4.50;99.90;;;;;;5031549;28;20032;-68
2021/12/20 10:33:46;;;;;;;15.68;6.80;;;4.50;99.90;;;;;;5032496;28;20025;-68
2021/12/20 10:36:15;;;;;;;16.92;7.25;;;4.60;99.90;;;;;;5017968;28;20127;-68
2021/12/20 10:38:49;;;;;;;16.40;7.75;;;4.70;99.90;;;;;;5048817;28;20040;-68
2021/12/20 10:41:24;;;;;;;19.55;7.75;;;4.80;99.90;;;;;;5038284;28;20089;-68
2021/12/20 10:44:00;;;;;;;15.70;6.55;;;4.90;99.90;;;;;;5028574;28;20128;-70
2021/12/20 10:46:29;;;;;;;15.88;7.03;;;5.00;99.90;;;;;;5033092;28;20108;-69
2021/12/20 10:49:22;;;;;;;17.13;7.15;;;5.00;99.90;;;;;;5038050;28;20730;-69
2021/12/20 10:51:55;;;;;;;14.25;6.50;;;5.10;99.90;;;;;;5041964;28;20037;-70
2021/12/20 10:54:30;;;;;;;14.02;7.05;;;5.20;99.90;;;;;;5022891;28;20061;-68
2021/12/20 10:57:05;;;;;;;18.20;6.95;;;5.20;99.90;;;;;;5044879;28;20025;-69
2021/12/20 10:59:37;;;;;;;12.90;6.20;;;5.30;99.90;;;;;;5034612;28;20102;-68
2021/12/20 11:05:01;;;;;;;14.75;5.90;;;5.30;99.90;;;;;;5051881;28;20067;-69
2021/12/20 11:10:03;;;;;;;15.30;5.38;;;5.20;99.90;;;;;;5047877;28;20021;-68
2021/12/20 11:12:49;;;;;;;14.13;5.65;;;5.20;99.90;;;;;;5032492;28;20029;-68
2021/12/20 11:15:17;;;;;;;11.73;4.60;;;5.10;99.90;;;;;;5037340;28;20028;-69
2021/12/20 11:18:01;;;;;;;13.77;5.30;;;5.10;99.90;;;;;;5034284;28;20108;-69
2021/12/20 11:20:35;;;;;;;12.88;4.90;;;5.00;99.90;;;;;;5034747;28;20082;-69
2021/12/20 11:23:03;;;;;;;13.00;4.97;;;4.90;99.90;;;;;;5030727;28;20036;-68
2021/12/20 11:25:31;;;;;;;13.85;5.45;;;4.90;99.90;;;;;;5047256;28;20396;-69
2021/12/20 11:27:57;;;;;;;15.50;5.40;;;4.90;99.90;;;;;;5023198;28;20063;-68
2021/12/20 11:30:26;;;;;;;14.75;5.10;;;4.90;99.90;;;;;;5036949;28;20429;-68
2021/12/20 11:32:53;;;;;;;10.55;4.30;;;4.80;99.90;;;;;;5054811;23;20110;-89
2021/12/20 11:35:22;;;;;;;16.88;5.00;;;4.80;99.90;;;;;;5036682;28;20112;-87
2021/12/20 11:38:11;;;;;;;9.63;4.22;;;4.80;99.90;;;;;;5030310;28;20045;-87
2021/12/20 11:41:12;;;;;;;11.88;4.05;;;4.80;99.90;;;;;;4985311;28;20097;-88
2021/12/20 11:44:31;;;;;;;9.80;3.83;;;4.80;99.90;;;;;;5029405;28;20040;-87
2021/12/20 11:47:50;;;;;;;10.90;4.65;;;4.80;99.90;;;;;;4992941;28;20338;-87
2021/12/20 11:50:43;;;;;;;9.88;4.20;;;4.80;99.90;;;;;;5016715;28;20065;-87
